Time;durP1;ratioP1;P1;durP2;ratioP2;P2;SDS_P1;SDS_P2;PMS_P1;PMS_P2;Temp;Humidity;BMP_temperature;BMP_pressure;BME280_temperature;BME280_humidity;BME280_pressure;Samples;Min_cycle;Max_cycle;Signal;HPM_P1;HPM_P2
2023/07/29 00:02:08;;;;;;;22.20;15.55;;;;;;;18.11;100.00;100612.41;5045758;28;20029;-71
2023/07/29 00:04:34;;;;;;;20.58;14.80;;;;;;;18.14;100.00;100610.84;5052231;28;20040;-72
2023/07/29 00:06:59;;;;;;;20.77;14.93;;;;;;;18.03;100.00;100611.41;5043324;28;20087;-72
2023/07/29 00:09:24;;;;;;;20.30;15.18;;;;;;;17.97;100.00;100601.66;5041992;28;20040;-72
2023/07/29 00:11:50;;;;;;;21.55;15.77;;;;;;;17.95;100.00;100594.78;5044739;28;20033;-72
2023/07/29 00:14:15;;;;;;;20.85;14.98;;;;;;;17.95;100.00;100597.59;5033873;28;20025;-71
2023/07/29 00:16:41;;;;;;;21.45;15.98;;;;;;;17.93;100.00;100589.53;5045062;28;20481;-71
2023/07/29 00:19:06;;;;;;;20.10;15.85;;;;;;;17.91;100.00;100577.88;5046464;28;20021;-71
2023/07/29 00:21:31;;;;;;;21.30;15.93;;;;;;;17.89;100.00;100583.06;5047808;28;20065;-71
2023/07/29 00:24:01;;;;;;;22.00;15.82;;;;;;;17.90;100.00;100573.50;5033651;28;20031;-72
2023/07/29 00:26:28;;;;;;;20.52;15.30;;;;;;;17.92;100.00;100582.31;5035283;28;20079;-72
2023/07/29 00:28:54;;;;;;;20.45;15.70;;;;;;;17.90;100.00;100581.88;5033578;28;20127;-72
2023/07/29 00:31:19;;;;;;;21.35;15.90;;;;;;;17.93;100.00;100593.16;5033532;28;20406;-72
2023/07/29 00:33:45;;;;;;;20.77;15.93;;;;;;;17.93;100.00;100583.94;5038216;28;20024;-72
2023/07/29 00:36:10;;;;;;;21.50;16.08;;;;;;;17.91;100.00;100583.47;5045673;28;20513;-72
2023/07/29 00:38:35;;;;;;;21.05;15.90;;;;;;;17.94;100.00;100591.16;5051880;28;20115;-71
2023/07/29 00:41:02;;;;;;;20.67;15.75;;;;;;;17.97;100.00;100584.06;5038732;28;20104;-72
2023/07/29 00:43:28;;;;;;;23.35;15.55;;;;;;;17.97;100.00;100595.25;5051312;28;20036;-72
2023/07/29 00:45:53;;;;;;;21.40;16.05;;;;;;;17.97;100.00;100592.44;5047255;28;20436;-72
2023/07/29 00:48:19;;;;;;;22.00;16.13;;;;;;;17.99;100.00;100581.72;5033644;28;20041;-72
2023/07/29 00:50:44;;;;;;;20.90;16.73;;;;;;;17.98;100.00;100575.31;5035318;28;20096;-72
2023/07/29 00:53:10;;;;;;;21.95;15.60;;;;;;;17.98;100.00;100580.06;5052061;28;20056;-72
2023/07/29 00:55:36;;;;;;;20.92;16.08;;;;;;;17.97;100.00;100581.25;5039739;28;20040;-71
2023/07/29 00:58:02;;;;;;;21.88;16.60;;;;;;;17.95;100.00;100572.41;5041655;28;20079;-72
2023/07/29 01:00:28;;;;;;;21.25;16.58;;;;;;;17.93;100.00;100565.19;5032625;28;20057;-72
2023/07/29 01:02:54;;;;;;;21.08;16.50;;;;;;;17.89;100.00;100571.88;5042961;28;20060;-73
2023/07/29 01:05:20;;;;;;;23.58;17.17;;;;;;;17.91;100.00;100564.72;5048299;28;20378;-72
2023/07/29 01:08:02;;;;;;;22.15;16.70;;;;;;;17.90;100.00;100567.91;5045878;28;20029;-72
2023/07/29 01:10:54;;;;;;;21.05;16.10;;;;;;;17.90;100.00;100567.91;5045865;28;20048;-72
2023/07/29 01:13:28;;;;;;;21.50;16.17;;;;;;;17.82;100.00;100564.09;5042545;28;20414;-72
2023/07/29 01:16:07;;;;;;;22.15;16.20;;;;;;;17.79;100.00;100559.22;5033796;28;20489;-71
2023/07/29 01:18:36;;;;;;;22.40;16.48;;;;;;;17.76;100.00;100571.13;5037192;28;20533;-72
2023/07/29 01:21:04;;;;;;;22.48;16.67;;;;;;;17.75;100.00;100561.94;5043990;28;20055;-72
2023/07/29 01:23:34;;;;;;;21.42;16.55;;;;;;;17.65;100.00;100570.88;5032636;28;20037;-72
2023/07/29 01:26:00;;;;;;;21.60;16.30;;;;;;;17.61;100.00;100565.19;5044531;28;20029;-72
2023/07/29 01:28:27;;;;;;;23.02;16.73;;;;;;;17.57;100.00;100569.88;5036887;28;20128;-72
2023/07/29 01:31:01;;;;;;;21.25;16.02;;;;;;;17.54;100.00;100565.03;5050573;28;20045;-71
2023/07/29 01:33:34;;;;;;;21.58;16.75;;;;;;;17.49;100.00;100568.06;5040513;28;20048;-71
2023/07/29 01:36:18;;;;;;;22.60;16.70;;;;;;;17.53;100.00;100566.19;5047510;28;20029;-72
2023/07/29 01:38:44;;;;;;;23.00;17.23;;;;;;;17.48;100.00;100568.44;5032336;28;20063;-72
2023/07/29 01:41:10;;;;;;;21.48;16.85;;;;;;;17.49;100.00;100565.28;5048052;28;20034;-72
2023/07/29 01:43:43;;;;;;;22.20;17.02;;;;;;;17.48;100.00;100569.25;5049254;28;20025;-72
2023/07/29 01:46:13;;;;;;;22.00;17.13;;;;;;;17.52;100.00;100572.16;5051725;28;20134;-71
2023/07/29 01:48:38;;;;;;;22.45;17.35;;;;;;;17.53;100.00;100570.94;5042505;28;20079;-72
2023/07/29 01:51:05;;;;;;;22.25;17.20;;;;;;;17.58;100.00;100570.69;5049419;28;20040;-73
2023/07/29 01:53:30;;;;;;;24.08;17.20;;;;;;;17.62;100.00;100579.97;5039190;28;20104;-73
2023/07/29 01:55:56;;;;;;;21.67;16.90;;;;;;;17.63;100.00;100584.41;5033036;28;20116;-73
2023/07/29 01:58:22;;;;;;;20.88;16.45;;;;;;;17.64;100.00;100582.44;5040277;28;20043;-73
2023/07/29 02:00:47;;;;;;;21.20;16.65;;;;;;;17.65;100.00;100581.25;5031988;28;20029;-73
2023/07/29 02:03:13;;;;;;;22.42;17.33;;;;;;;17.67;100.00;100574.13;5031780;28;20049;-72
2023/07/29 02:05:39;;;;;;;23.10;17.48;;;;;;;17.71;100.00;100585.41;5050397;28;20048;-73
2023/07/29 02:08:04;;;;;;;23.63;17.50;;;;;;;17.73;100.00;100581.06;5037402;28;20041;-72
2023/07/29 02:10:29;;;;;;;23.42;17.40;;;;;;;17.71;100.00;100580.59;5058075;28;20030;-73
2023/07/29 02:12:55;;;;;;;22.88;18.23;;;;;;;17.71;100.00;100577.00;5043408;28;20086;-73
2023/07/29 02:15:20;;;;;;;23.40;17.85;;;;;;;17.73;100.00;100585.84;5046118;28;20017;-73
2023/07/29 02:17:45;;;;;;;22.80;17.73;;;;;;;17.68;100.00;100583.31;5044718;28;21040;-73
2023/07/29 02:20:11;;;;;;;22.92;17.50;;;;;;;17.65;100.00;100575.66;5033142;28;20504;-72
2023/07/29 02:22:36;;;;;;;23.13;17.83;;;;;;;17.60;100.00;100571.16;5038129;28;20052;-72
2023/07/29 02:25:02;;;;;;;21.55;16.83;;;;;;;17.59;100.00;100575.91;5031456;28;20504;-72
2023/07/29 02:27:28;;;;;;;22.60;17.17;;;;;;;17.56;100.00;100562.69;5047390;28;20033;-72
2023/07/29 02:29:53;;;;;;;21.65;16.52;;;;;;;17.52;100.00;100547.78;5033954;28;20055;-72
2023/07/29 02:32:19;;;;;;;20.90;15.90;;;;;;;17.49;100.00;100556.09;5042515;28;20053;-72
2023/07/29 02:34:45;;;;;;;21.15;14.95;;;;;;;17.42;100.00;100560.34;5038588;28;20084;-72
2023/07/29 02:37:10;;;;;;;20.30;15.27;;;;;;;17.39;100.00;100558.25;5035537;28;20068;-73
2023/07/29 02:39:36;;;;;;;20.85;15.35;;;;;;;17.36;100.00;100563.75;5031365;28;20033;-72
2023/07/29 02:42:02;;;;;;;21.80;15.65;;;;;;;17.35;100.00;100559.31;5040675;28;20055;-71
2023/07/29 02:44:28;;;;;;;21.00;15.68;;;;;;;17.30;100.00;100550.03;5031204;28;20026;-72
2023/07/29 02:46:55;;;;;;;21.92;14.70;;;;;;;17.31;100.00;100562.03;5035886;28;20037;-72
2023/07/29 02:49:21;;;;;;;21.15;15.80;;;;;;;17.29;100.00;100558.78;5035466;28;20028;-72
2023/07/29 02:51:46;;;;;;;23.38;15.32;;;;;;;17.25;100.00;100555.06;5031058;28;20037;-72
2023/07/29 02:54:12;;;;;;;21.00;15.10;;;;;;;17.22;100.00;100556.59;5031401;28;20029;-72
2023/07/29 02:56:37;;;;;;;20.40;15.05;;;;;;;17.17;100.00;100547.66;5045545;28;20039;-72
2023/07/29 02:59:02;;;;;;;23.05;15.80;;;;;;;17.13;100.00;100554.00;5043336;28;20026;-72
2023/07/29 03:01:28;;;;;;;20.05;14.85;;;;;;;17.10;100.00;100556.66;5032231;28;20032;-72
2023/07/29 03:03:53;;;;;;;20.17;15.27;;;;;;;17.04;100.00;100553.34;5032855;28;20128;-72
2023/07/29 03:06:18;;;;;;;20.85;15.55;;;;;;;16.98;100.00;100557.53;5041868;28;20037;-72
2023/07/29 03:08:44;;;;;;;20.30;14.82;;;;;;;16.95;100.00;100553.50;5045945;28;20099;-72
2023/07/29 03:11:12;;;;;;;21.13;14.93;;;;;;;16.91;100.00;100549.75;5031185;28;20477;-71
2023/07/29 03:13:37;;;;;;;20.25;14.27;;;;;;;16.90;100.00;100550.09;5031040;28;20033;-73
2023/07/29 03:16:07;;;;;;;19.27;14.30;;;;;;;16.88;100.00;100547.69;5030929;28;20037;-72
2023/07/29 03:18:33;;;;;;;21.08;14.90;;;;;;;16.84;100.00;100552.34;5031012;28;20026;-73
2023/07/29 03:20:58;;;;;;;20.92;15.18;;;;;;;16.81;100.00;100553.88;5030847;28;20381;-72
2023/07/29 03:23:23;;;;;;;20.63;14.52;;;;;;;16.80;100.00;100545.88;5030781;28;20431;-72
2023/07/29 03:25:51;;;;;;;19.70;14.30;;;;;;;16.79;100.00;100547.81;5048623;28;20025;-72
2023/07/29 03:28:16;;;;;;;19.73;13.52;;;;;;;16.77;100.00;100544.56;5053368;28;20032;-72
2023/07/29 03:30:42;;;;;;;20.08;13.38;;;;;;;16.76;100.00;100548.56;5053093;28;20056;-72
2023/07/29 03:33:07;;;;;;;18.85;13.18;;;;;;;16.74;100.00;100550.06;5054510;28;20044;-72
2023/07/29 03:35:32;;;;;;;19.85;13.82;;;;;;;16.73;100.00;100559.59;5054531;28;20025;-72
2023/07/29 03:37:58;;;;;;;19.10;13.27;;;;;;;16.71;100.00;100559.16;5044703;28;20102;-72
2023/07/29 03:40:23;;;;;;;19.02;13.98;;;;;;;16.69;100.00;100565.09;5054173;28;20037;-71
2023/07/29 03:42:49;;;;;;;20.33;13.60;;;;;;;16.62;100.00;100565.72;5034234;28;20551;-72
2023/07/29 03:45:14;;;;;;;20.73;14.07;;;;;;;16.58;100.00;100558.41;5035632;28;20065;-72
2023/07/29 03:47:40;;;;;;;20.23;13.90;;;;;;;16.55;100.00;100568.28;5050657;28;20390;-71
2023/07/29 03:50:05;;;;;;;19.52;13.68;;;;;;;16.52;100.00;100569.00;5054256;28;20365;-71
2023/07/29 03:52:31;;;;;;;19.38;13.63;;;;;;;16.52;100.00;100569.00;5054100;28;20039;-72
2023/07/29 03:54:56;;;;;;;19.60;13.68;;;;;;;16.48;100.00;100552.13;5054044;28;20060;-72
2023/07/29 03:57:21;;;;;;;20.08;13.88;;;;;;;16.46;100.00;100554.47;5037983;28;20025;-71
2023/07/29 03:59:47;;;;;;;19.42;13.98;;;;;;;16.45;100.00;100555.66;5034093;28;20104;-72
2023/07/29 04:02:12;;;;;;;19.80;14.07;;;;;;;16.43;100.00;100563.56;5032618;28;20022;-72
2023/07/29 04:04:37;;;;;;;19.30;14.15;;;;;;;16.38;100.00;100547.88;5033860;28;20029;-71
2023/07/29 04:07:03;;;;;;;19.10;13.95;;;;;;;16.35;100.00;100539.38;5044079;28;20036;-72
2023/07/29 04:09:28;;;;;;;19.85;14.20;;;;;;;16.32;100.00;100524.16;5037451;28;20060;-72
2023/07/29 04:11:54;;;;;;;18.45;13.73;;;;;;;16.28;100.00;100526.03;5049897;28;20342;-72
2023/07/29 04:14:19;;;;;;;20.10;15.05;;;;;;;16.23;100.00;100515.13;5044545;28;20112;-72
2023/07/29 04:16:45;;;;;;;19.60;14.18;;;;;;;16.19;100.00;100516.97;5052276;28;20377;-72
2023/07/29 04:19:10;;;;;;;19.48;12.85;;;;;;;16.16;100.00;100520.47;5052385;28;20029;-72
2023/07/29 04:21:35;;;;;;;18.80;12.57;;;;;;;16.15;100.00;100524.44;5033127;28;20060;-72
2023/07/29 04:24:01;;;;;;;21.50;12.13;;;;;;;16.12;100.00;100516.75;5033270;28;20031;-72
2023/07/29 04:26:26;;;;;;;19.40;11.85;;;;;;;16.14;100.00;100523.63;5033372;28;20038;-72
2023/07/29 04:28:51;;;;;;;21.95;12.80;;;;;;;16.09;100.00;100542.56;5047659;28;20080;-72
2023/07/29 04:31:17;;;;;;;19.60;12.77;;;;;;;16.12;100.00;100558.63;5053511;28;20025;-72
2023/07/29 04:33:42;;;;;;;20.95;12.55;;;;;;;16.11;100.00;100574.53;5053443;28;20186;-72
2023/07/29 04:36:07;;;;;;;22.00;12.70;;;;;;;16.12;100.00;100575.38;5053221;28;20438;-72
2023/07/29 04:38:33;;;;;;;19.33;11.80;;;;;;;16.11;100.00;100576.53;5044846;28;20526;-71
2023/07/29 04:41:01;;;;;;;19.27;12.43;;;;;;;16.07;100.00;100582.00;5052913;28;20029;-72
2023/07/29 04:43:28;;;;;;;19.77;13.10;;;;;;;16.03;100.00;100569.91;5044693;28;20211;-72
2023/07/29 04:45:53;;;;;;;20.55;12.52;;;;;;;16.08;100.00;100569.69;5044434;28;20541;-71
2023/07/29 04:48:18;;;;;;;18.65;12.30;;;;;;;16.09;100.00;100562.94;5053119;28;20103;-71
2023/07/29 04:50:44;;;;;;;19.38;12.27;;;;;;;16.14;100.00;100567.47;5053221;28;20063;-72
2023/07/29 04:53:09;;;;;;;19.80;12.25;;;;;;;16.16;100.00;100579.91;5052869;28;20028;-71
2023/07/29 04:55:34;;;;;;;19.77;11.93;;;;;;;16.16;100.00;100577.09;5051404;28;20021;-71
2023/07/29 04:58:00;;;;;;;18.60;11.48;;;;;;;16.22;100.00;100574.88;5047241;28;20094;-71
2023/07/29 05:00:25;;;;;;;18.83;11.98;;;;;;;16.24;100.00;100571.75;5039175;28;20538;-72
2023/07/29 05:02:51;;;;;;;19.80;11.38;;;;;;;16.27;100.00;100580.22;5046465;28;20061;-73
2023/07/29 05:05:16;;;;;;;19.75;11.57;;;;;;;16.32;100.00;100577.19;5032814;28;20424;-71
2023/07/29 05:07:42;;;;;;;18.50;11.93;;;;;;;16.38;100.00;100578.56;5037930;28;20036;-74
2023/07/29 05:10:07;;;;;;;19.00;11.27;;;;;;;16.46;100.00;100579.59;5041967;28;20481;-74
2023/07/29 05:12:33;;;;;;;18.33;11.38;;;;;;;16.53;100.00;100581.81;5051846;28;20033;-71
2023/07/29 05:14:58;;;;;;;18.05;11.35;;;;;;;16.58;100.00;100583.53;5038516;28;20116;-71
2023/07/29 05:17:23;;;;;;;19.50;11.35;;;;;;;16.62;100.00;100592.81;5046769;28;20029;-72
2023/07/29 05:19:49;;;;;;;19.67;11.48;;;;;;;16.66;100.00;100594.53;5052685;28;20052;-71
2023/07/29 05:22:14;;;;;;;18.30;11.38;;;;;;;16.67;100.00;100601.75;5035454;28;20061;-72
2023/07/29 05:24:39;;;;;;;17.95;11.15;;;;;;;16.71;100.00;100595.47;5034075;28;20112;-72
2023/07/29 05:27:05;;;;;;;19.08;11.25;;;;;;;16.69;100.00;100610.59;5051599;28;20128;-72
2023/07/29 05:29:30;;;;;;;20.45;11.48;;;;;;;16.75;100.00;100613.97;5041754;28;20508;-72
2023/07/29 05:31:56;;;;;;;17.25;10.65;;;;;;;16.76;100.00;100604.44;5032185;28;20409;-72
2023/07/29 05:34:22;;;;;;;17.63;10.75;;;;;;;16.76;100.00;100598.84;5049602;28;20089;-74
2023/07/29 05:36:47;;;;;;;17.75;11.15;;;;;;;16.84;100.00;100599.84;5035614;28;20052;-72
2023/07/29 05:39:13;;;;;;;18.27;10.60;;;;;;;16.86;100.00;100582.75;5038771;28;20440;-72
2023/07/29 05:41:39;;;;;;;17.38;10.57;;;;;;;16.94;100.00;100593.78;5036952;28;20189;-72
2023/07/29 05:44:05;;;;;;;19.95;10.93;;;;;;;16.99;100.00;100599.13;5052129;28;20033;-73
2023/07/29 05:46:30;;;;;;;17.00;10.23;;;;;;;17.02;100.00;100597.59;5044970;28;20048;-72
2023/07/29 05:48:55;;;;;;;17.65;10.55;;;;;;;17.03;100.00;100601.19;5033197;28;20037;-72
2023/07/29 05:51:20;;;;;;;18.35;10.77;;;;;;;17.07;100.00;100599.31;5035037;28;20445;-71
2023/07/29 05:53:46;;;;;;;18.52;11.00;;;;;;;17.11;100.00;100589.03;5048432;28;20033;-71
2023/07/29 05:56:11;;;;;;;17.75;11.23;;;;;;;17.18;100.00;100594.00;5050126;28;20033;-71
2023/07/29 05:58:36;;;;;;;18.10;11.05;;;;;;;17.31;100.00;100590.78;5044341;28;20401;-71
2023/07/29 06:01:02;;;;;;;18.17;11.02;;;;;;;17.47;100.00;100590.00;5031770;28;20079;-71
2023/07/29 06:03:27;;;;;;;18.05;10.70;;;;;;;17.64;100.00;100602.00;5048875;28;20111;-71
2023/07/29 06:05:54;;;;;;;17.33;11.02;;;;;;;17.70;100.00;100595.78;5032490;28;20034;-70
2023/07/29 06:08:19;;;;;;;19.27;10.65;;;;;;;17.76;100.00;100597.13;5036590;28;20033;-71
2023/07/29 06:10:45;;;;;;;18.35;11.20;;;;;;;17.84;100.00;100606.53;5040532;28;20044;-71
2023/07/29 06:13:10;;;;;;;18.95;11.48;;;;;;;17.90;100.00;100601.47;5033383;28;20021;-71
2023/07/29 06:15:35;;;;;;;17.88;11.55;;;;;;;18.00;100.00;100602.94;5033578;28;20068;-72
2023/07/29 06:18:00;;;;;;;17.85;10.93;;;;;;;18.12;100.00;100600.03;5051459;28;20458;-70
2023/07/29 06:20:26;;;;;;;17.33;11.07;;;;;;;18.21;100.00;100605.41;5047894;28;20041;-72
2023/07/29 06:22:51;;;;;;;16.58;10.77;;;;;;;18.29;100.00;100604.38;5050634;28;20028;-72
2023/07/29 06:25:17;;;;;;;16.85;10.25;;;;;;;18.40;100.00;100610.25;5043967;28;20048;-73
2023/07/29 06:27:42;;;;;;;18.27;10.93;;;;;;;18.48;100.00;100598.03;5046824;28;20036;-72
2023/07/29 06:30:08;;;;;;;17.63;11.07;;;;;;;18.54;100.00;100585.34;5048858;28;20075;-71
2023/07/29 06:32:34;;;;;;;17.38;11.30;;;;;;;18.68;100.00;100603.66;5039170;28;20059;-72
2023/07/29 06:34:59;;;;;;;17.92;11.35;;;;;;;18.69;99.52;100602.47;5051216;28;20059;-71
2023/07/29 06:37:25;;;;;;;17.15;11.50;;;;;;;18.60;100.00;100601.88;5031408;28;20025;-71
2023/07/29 06:39:50;;;;;;;17.27;10.93;;;;;;;18.54;100.00;100593.75;5031186;28;20025;-71
2023/07/29 06:42:15;;;;;;;18.92;11.73;;;;;;;18.47;100.00;100607.59;5032143;28;20075;-71
2023/07/29 06:44:40;;;;;;;18.42;11.98;;;;;;;18.39;100.00;100611.44;5044064;28;20033;-71
2023/07/29 06:47:06;;;;;;;18.23;11.23;;;;;;;18.44;100.00;100615.94;5038287;28;20150;-71
2023/07/29 06:49:32;;;;;;;17.85;11.57;;;;;;;18.40;100.00;100618.66;5044827;28;20510;-71
2023/07/29 06:51:57;;;;;;;19.02;11.70;;;;;;;18.44;100.00;100604.72;5050244;28;20048;-71
2023/07/29 06:54:26;;;;;;;18.52;11.57;;;;;;;18.51;100.00;100608.50;5040850;28;20037;-71
2023/07/29 06:56:52;;;;;;;18.70;11.60;;;;;;;18.55;100.00;100611.38;5049443;28;20048;-71
2023/07/29 06:59:17;;;;;;;17.88;11.68;;;;;;;18.62;100.00;100605.94;5031786;28;20034;-71
2023/07/29 07:01:42;;;;;;;16.77;11.15;;;;;;;18.65;100.00;100601.56;5031445;28;20029;-71
2023/07/29 07:04:08;;;;;;;17.60;11.32;;;;;;;18.72;100.00;100604.53;5031234;28;20061;-72
2023/07/29 07:06:33;;;;;;;18.42;11.27;;;;;;;18.80;100.00;100614.69;5044502;28;20076;-71
2023/07/29 07:08:58;;;;;;;17.17;11.38;;;;;;;18.87;99.99;100611.25;5042709;28;20478;-72
2023/07/29 07:11:24;;;;;;;17.17;10.80;;;;;;;18.97;99.20;100615.50;5036814;28;20045;-73
2023/07/29 07:13:49;;;;;;;18.30;11.18;;;;;;;19.14;99.43;100622.63;5044728;28;20025;-72
2023/07/29 07:16:14;;;;;;;17.70;11.07;;;;;;;19.28;98.84;100631.31;5043200;28;20033;-74
2023/07/29 07:18:40;;;;;;;16.65;10.27;;;;;;;19.26;98.24;100622.47;5034664;28;20438;-75
2023/07/29 07:21:05;;;;;;;15.95;10.50;;;;;;;19.18;98.88;100627.09;5031811;28;20022;-73
2023/07/29 07:23:30;;;;;;;16.67;10.73;;;;;;;19.37;97.69;100622.66;5050725;28;20025;-76
2023/07/29 07:25:55;;;;;;;16.77;10.70;;;;;;;19.46;97.53;100619.63;5040877;28;20116;-74
2023/07/29 07:28:21;;;;;;;17.77;10.88;;;;;;;19.53;96.50;100621.75;5041077;28;20540;-73
2023/07/29 07:30:46;;;;;;;17.23;10.75;;;;;;;19.57;96.58;100615.03;5032270;28;20113;-72
2023/07/29 07:33:12;;;;;;;17.48;10.85;;;;;;;19.63;96.40;100635.97;5033571;28;20033;-73
2023/07/29 07:35:37;;;;;;;16.15;10.43;;;;;;;19.61;95.27;100621.47;5031568;28;20075;-74
2023/07/29 07:38:03;;;;;;;15.57;10.70;;;;;;;19.67;96.23;100635.22;5036154;28;20037;-73
2023/07/29 07:40:33;;;;;;;16.17;10.85;;;;;;;19.66;95.35;100634.41;5050203;28;20385;-73
2023/07/29 07:42:58;;;;;;;18.08;11.10;;;;;;;19.64;94.68;100636.78;5052418;28;20040;-72
2023/07/29 07:45:23;;;;;;;17.25;11.00;;;;;;;19.60;95.07;100638.69;5051619;28;20075;-73
2023/07/29 07:47:51;;;;;;;16.92;10.68;;;;;;;19.45;95.95;100623.59;5050224;28;20029;-71
2023/07/29 07:50:17;;;;;;;17.17;10.57;;;;;;;19.45;94.89;100646.03;5050355;28;20037;-73
2023/07/29 07:52:42;;;;;;;17.52;10.82;;;;;;;19.38;95.74;100643.91;5048712;28;20040;-72
2023/07/29 07:55:08;;;;;;;17.05;11.10;;;;;;;19.35;95.99;100646.66;5051585;28;20067;-73
2023/07/29 07:57:33;;;;;;;17.33;10.90;;;;;;;19.39;96.00;100651.16;5050343;28;20046;-77
2023/07/29 07:59:58;;;;;;;17.13;11.10;;;;;;;19.39;95.24;100648.34;5052634;28;20438;-72
2023/07/29 08:02:24;;;;;;;16.55;10.95;;;;;;;19.51;94.92;100654.97;5051813;28;20029;-76
2023/07/29 08:04:49;;;;;;;16.00;11.00;;;;;;;19.56;93.62;100663.91;5035786;28;20037;-73
2023/07/29 08:07:14;;;;;;;17.85;10.95;;;;;;;19.64;94.39;100651.63;5033240;28;20029;-77
2023/07/29 08:09:40;;;;;;;18.63;10.98;;;;;;;19.74;93.20;100652.97;5032300;28;20025;-76
2023/07/29 08:12:06;;;;;;;17.75;10.75;;;;;;;19.85;93.14;100643.94;5033050;28;20061;-74
2023/07/29 08:14:31;;;;;;;16.33;10.50;;;;;;;19.86;92.14;100639.97;5035125;28;20037;-74
2023/07/29 08:16:56;;;;;;;16.85;10.68;;;;;;;19.93;92.42;100645.72;5035035;28;20029;-75
2023/07/29 08:19:22;;;;;;;17.25;11.02;;;;;;;19.90;91.12;100660.50;5040030;28;20030;-75
2023/07/29 08:21:47;;;;;;;15.00;10.18;;;;;;;19.94;91.38;100650.97;5037887;28;20033;-75
2023/07/29 08:24:12;;;;;;;16.25;10.50;;;;;;;20.14;91.18;100655.66;5035762;28;20056;-72
2023/07/29 08:26:38;;;;;;;16.30;10.43;;;;;;;20.29;91.42;100651.09;5051849;28;21342;-75
2023/07/29 08:29:03;;;;;;;15.38;10.32;;;;;;;20.27;90.61;100660.69;5041880;28;20050;-74
2023/07/29 08:31:28;;;;;;;16.45;10.10;;;;;;;20.37;88.90;100650.00;5039757;28;20041;-68
2023/07/29 08:33:54;;;;;;;15.88;10.25;;;;;;;20.45;88.60;100651.72;5033270;28;20112;-78
2023/07/29 08:36:19;;;;;;;15.55;9.90;;;;;;;20.46;87.94;100649.75;5033658;28;20025;-70
2023/07/29 08:38:44;;;;;;;13.65;9.90;;;;;;;20.52;88.00;100651.03;5033266;28;20029;-70
2023/07/29 08:41:10;;;;;;;13.70;9.55;;;;;;;20.55;87.70;100648.25;5042577;28;20163;-70
2023/07/29 08:43:38;;;;;;;15.63;9.80;;;;;;;20.53;87.37;100639.44;5035622;28;20029;-70
2023/07/29 08:46:03;;;;;;;13.70;9.48;;;;;;;20.56;87.83;100647.06;5039381;28;20283;-70
2023/07/29 08:48:42;;;;;;;14.32;8.88;;;;;;;20.58;88.27;100647.53;5036142;28;20030;-69
2023/07/29 08:51:11;;;;;;;14.85;9.48;;;;;;;20.50;87.69;100639.38;5032243;28;20033;-70
2023/07/29 08:53:37;;;;;;;16.00;9.70;;;;;;;20.62;88.55;100650.38;5032217;28;20100;-70
2023/07/29 08:56:04;;;;;;;13.90;9.75;;;;;;;20.78;86.75;100652.25;5030574;28;20025;-70
2023/07/29 08:58:30;;;;;;;16.33;9.82;;;;;;;20.89;85.68;100653.16;5032731;28;20551;-71
2023/07/29 09:00:56;;;;;;;16.13;9.90;;;;;;;21.00;84.50;100648.50;5052894;28;20036;-71
2023/07/29 09:03:21;;;;;;;13.25;9.02;;;;;;;21.08;83.53;100648.56;5053854;28;20108;-71
2023/07/29 09:05:47;;;;;;;13.88;9.65;;;;;;;21.08;82.81;100649.41;5044077;28;20091;-71
2023/07/29 09:08:13;;;;;;;14.57;9.50;;;;;;;21.18;82.32;100643.09;5040809;28;20025;-72
2023/07/29 09:10:39;;;;;;;15.35;9.52;;;;;;;21.16;82.08;100639.06;5050558;28;20032;-71
2023/07/29 09:13:05;;;;;;;14.68;9.55;;;;;;;21.13;82.04;100642.63;5046969;28;20445;-71
2023/07/29 09:15:33;;;;;;;13.48;8.88;;;;;;;21.25;82.64;100642.38;5043574;28;20029;-71
2023/07/29 09:17:58;;;;;;;14.10;8.93;;;;;;;21.28;80.83;100633.13;5052394;28;20110;-70
2023/07/29 09:20:27;;;;;;;13.98;8.88;;;;;;;21.27;80.05;100637.16;5052548;28;20079;-70
2023/07/29 09:23:01;;;;;;;14.57;9.35;;;;;;;21.20;80.66;100631.44;5050922;28;20408;-70
2023/07/29 09:25:28;;;;;;;14.27;9.00;;;;;;;21.17;80.34;100630.22;5052122;28;20081;-71
2023/07/29 09:27:59;;;;;;;12.57;9.13;;;;;;;21.14;80.52;100627.38;5051764;28;20461;-70
2023/07/29 09:30:24;;;;;;;13.48;9.32;;;;;;;21.29;79.60;100631.94;5052096;28;20084;-70
2023/07/29 09:32:55;;;;;;;11.35;9.32;;;;;;;21.36;79.68;100614.34;5051721;28;20079;-70
2023/07/29 09:35:21;;;;;;;12.50;9.07;;;;;;;21.58;78.64;100628.63;5051660;28;20033;-71
2023/07/29 09:37:47;;;;;;;13.20;9.10;;;;;;;21.69;77.56;100623.13;5051824;28;20079;-71
2023/07/29 09:40:15;;;;;;;12.75;8.90;;;;;;;21.85;76.95;100631.31;5053005;28;20070;-71
2023/07/29 09:42:48;;;;;;;13.02;8.80;;;;;;;22.08;76.98;100631.09;5053624;28;20025;-71
2023/07/29 09:45:26;;;;;;;11.20;8.73;;;;;;;22.19;76.31;100628.34;5054322;28;20052;-71
2023/07/29 09:47:53;;;;;;;14.35;9.07;;;;;;;22.20;76.00;100629.97;5052085;28;20639;-72
2023/07/29 09:50:27;;;;;;;12.65;8.80;;;;;;;22.15;75.98;100633.16;5046779;28;20036;-71
2023/07/29 09:52:54;;;;;;;13.20;9.15;;;;;;;22.15;76.05;100631.13;5040465;28;20057;-72
2023/07/29 09:55:24;;;;;;;12.82;8.48;;;;;;;22.23;76.91;100632.81;5047480;28;20066;-72
2023/07/29 09:58:04;;;;;;;13.80;9.50;;;;;;;22.22;74.89;100631.19;5051444;28;20029;-70
2023/07/29 10:00:30;;;;;;;12.88;9.23;;;;;;;22.32;76.15;100635.28;5051753;28;20029;-71
2023/07/29 10:02:57;;;;;;;12.20;8.25;;;;;;;22.51;74.41;100631.41;5050040;28;20082;-70
2023/07/29 10:05:25;;;;;;;12.90;9.25;;;;;;;22.63;73.98;100630.25;5044023;28;20041;-71
2023/07/29 10:07:51;;;;;;;12.98;9.23;;;;;;;22.92;73.58;100633.19;5031437;28;20041;-71
2023/07/29 10:10:16;;;;;;;12.35;8.88;;;;;;;23.15;71.90;100627.22;5031466;28;20026;-72
2023/07/29 10:12:43;;;;;;;13.82;9.25;;;;;;;23.31;71.06;100641.03;5035972;28;20056;-71
2023/07/29 10:15:08;;;;;;;12.75;9.13;;;;;;;23.34;70.57;100630.94;5041806;28;20044;-72
2023/07/29 10:17:36;;;;;;;12.43;8.90;;;;;;;23.40;69.77;100623.72;5039237;28;20024;-71
2023/07/29 10:20:07;;;;;;;12.35;8.90;;;;;;;23.38;69.83;100628.94;5071630;28;20040;-72
2023/07/29 10:22:46;;;;;;;12.77;8.80;;;;;;;23.22;70.84;100626.47;5071830;28;20032;-73
2023/07/29 10:25:22;;;;;;;12.63;8.40;;;;;;;23.08;71.68;100640.53;5037629;28;20038;-69
2023/07/29 10:27:56;;;;;;;13.00;8.75;;;;;;;23.17;72.33;100621.22;5036802;28;20033;-69
2023/07/29 10:30:21;;;;;;;13.75;9.00;;;;;;;23.42;70.41;100629.78;5042561;28;20049;-70
2023/07/29 10:32:48;;;;;;;13.82;9.20;;;;;;;23.23;70.41;100616.81;5038831;28;20035;-70
2023/07/29 10:35:15;;;;;;;12.48;8.98;;;;;;;23.19;71.10;100608.34;5039446;28;20040;-72
2023/07/29 10:37:41;;;;;;;14.27;9.02;;;;;;;23.28;71.31;100615.63;5045951;28;20435;-72
2023/07/29 10:40:09;;;;;;;13.40;9.18;;;;;;;23.20;71.02;100621.25;5034823;28;20434;-71
2023/07/29 10:42:35;;;;;;;13.48;9.18;;;;;;;23.40;69.96;100623.72;5031814;28;20033;-69
2023/07/29 10:45:00;;;;;;;11.40;8.38;;;;;;;23.56;69.15;100611.22;5049084;28;20048;-70
2023/07/29 10:47:29;;;;;;;14.63;9.68;;;;;;;23.70;68.69;100604.78;5048904;28;20036;-70
2023/07/29 10:49:58;;;;;;;12.65;9.18;;;;;;;23.91;69.16;100603.97;5049220;28;20039;-69
2023/07/29 10:52:41;;;;;;;13.20;9.25;;;;;;;24.16;69.67;100601.16;5049322;28;20112;-69
2023/07/29 10:55:25;;;;;;;14.10;8.70;;;;;;;24.50;67.50;100599.88;5049284;28;20040;-70
2023/07/29 10:57:50;;;;;;;14.57;9.10;;;;;;;24.56;65.12;100607.53;5050174;28;20063;-71
2023/07/29 11:00:20;;;;;;;12.43;8.57;;;;;;;24.42;64.31;100602.72;5049938;28;20025;-68
2023/07/29 11:03:00;;;;;;;12.68;8.80;;;;;;;24.37;64.57;100603.13;5049700;28;20132;-69
2023/07/29 11:05:25;;;;;;;13.90;9.07;;;;;;;24.06;65.02;100602.78;5050204;28;20025;-70